Time;durP1;ratioP1;P1;durP2;ratioP2;P2;SDS_P1;SDS_P2;PMS_P1;PMS_P2;Temp;Humidity;BMP_temperature;BMP_pressure;BME280_temperature;BME280_humidity;BME280_pressure;Samples;Min_cycle;Max_cycle;Signal;HPM_P1;HPM_P2
2022/03/20 00:00:05;;;;;;;23.33;16.37;;;4.30;99.90;;;;;;4977275;28;20447;-87
2022/03/20 00:02:33;;;;;;;20.67;15.90;;;4.40;99.90;;;;;;4975783;28;20450;-87
2022/03/20 00:05:01;;;;;;;19.63;15.70;;;4.50;99.90;;;;;;4991456;28;20469;-86
2022/03/20 00:07:26;;;;;;;21.53;16.43;;;4.60;99.90;;;;;;4975256;28;20460;-87
2022/03/20 00:09:52;;;;;;;21.10;15.87;;;4.60;99.90;;;;;;4979940;28;20585;-86
2022/03/20 00:12:18;;;;;;;22.07;17.07;;;4.60;99.90;;;;;;4983928;28;20187;-87
2022/03/20 00:14:44;;;;;;;21.80;16.90;;;4.50;99.90;;;;;;4974558;28;20187;-87
2022/03/20 00:17:09;;;;;;;24.30;17.80;;;4.50;99.90;;;;;;4980746;28;20367;-87
2022/03/20 00:19:35;;;;;;;22.40;16.97;;;4.50;99.90;;;;;;4979590;28;20176;-86
2022/03/20 00:22:01;;;;;;;21.60;16.10;;;4.40;99.90;;;;;;4985501;28;20205;-87
2022/03/20 00:24:27;;;;;;;21.43;15.63;;;4.40;99.90;;;;;;4979216;28;20722;-87
2022/03/20 00:26:56;;;;;;;23.53;15.60;;;4.40;99.90;;;;;;4984644;28;20555;-86
2022/03/20 00:29:24;;;;;;;21.23;16.57;;;4.40;99.90;;;;;;4979642;28;20744;-87
2022/03/20 00:31:49;;;;;;;19.43;16.43;;;4.30;99.90;;;;;;4999789;28;20489;-86
2022/03/20 00:34:15;;;;;;;21.70;16.43;;;4.20;99.90;;;;;;4975906;28;20442;-87
2022/03/20 00:36:40;;;;;;;19.17;16.60;;;4.10;99.90;;;;;;4976197;28;20217;-87
2022/03/20 00:39:06;;;;;;;20.97;15.67;;;4.00;99.90;;;;;;4999241;28;20379;-86
2022/03/20 00:41:47;;;;;;;18.30;14.40;;;4.10;99.90;;;;;;5003120;28;20187;-87
2022/03/20 00:44:13;;;;;;;19.90;14.97;;;4.10;99.90;;;;;;4975918;28;20203;-86
2022/03/20 00:46:38;;;;;;;19.40;15.50;;;4.20;99.90;;;;;;4974251;28;20454;-87
2022/03/20 00:49:05;;;;;;;18.60;15.13;;;4.20;99.60;;;;;;4974207;28;20758;-86
2022/03/20 00:51:31;;;;;;;20.90;16.47;;;4.20;99.90;;;;;;4977601;28;20190;-87
2022/03/20 00:53:57;;;;;;;17.00;15.07;;;4.30;99.90;;;;;;4976096;28;20459;-86
2022/03/20 00:56:23;;;;;;;18.67;14.47;;;4.20;99.80;;;;;;4976956;28;20465;-86
2022/03/20 00:58:49;;;;;;;17.03;14.33;;;4.20;99.10;;;;;;4982361;28;20298;-86
2022/03/20 01:01:15;;;;;;;19.33;13.93;;;4.20;98.70;;;;;;4975750;28;20439;-86
2022/03/20 01:03:41;;;;;;;20.67;14.60;;;4.30;98.20;;;;;;4994821;28;20196;-86
2022/03/20 01:06:08;;;;;;;16.50;14.37;;;4.30;97.90;;;;;;4975163;28;20477;-87
2022/03/20 01:08:38;;;;;;;18.97;14.97;;;4.40;97.20;;;;;;4980633;28;20470;-86
2022/03/20 01:11:05;;;;;;;15.20;13.00;;;4.30;96.80;;;;;;4978866;28;21033;-86
2022/03/20 01:13:31;;;;;;;18.73;14.07;;;4.30;97.00;;;;;;4980003;28;21213;-85
2022/03/20 01:15:57;;;;;;;17.27;14.37;;;4.40;97.00;;;;;;4976481;28;20492;-85
2022/03/20 01:18:24;;;;;;;19.60;15.20;;;4.40;96.90;;;;;;4982153;28;20655;-85
2022/03/20 01:20:52;;;;;;;18.10;14.10;;;4.40;96.50;;;;;;4971341;28;20562;-85
2022/03/20 01:23:21;;;;;;;19.00;15.27;;;4.50;96.60;;;;;;4974113;28;20578;-86
2022/03/20 01:25:47;;;;;;;19.03;13.87;;;4.40;97.20;;;;;;4975324;28;20765;-86
2022/03/20 01:28:12;;;;;;;19.70;14.80;;;4.40;97.30;;;;;;4984557;28;20439;-86
2022/03/20 01:30:38;;;;;;;17.83;14.60;;;4.30;97.50;;;;;;4976368;28;20520;-86
2022/03/20 01:33:04;;;;;;;17.87;13.80;;;4.20;98.00;;;;;;4978185;28;20191;-86
2022/03/20 01:35:32;;;;;;;18.03;14.33;;;4.30;98.20;;;;;;4995679;28;20316;-86
2022/03/20 01:37:59;;;;;;;20.50;15.70;;;4.30;98.60;;;;;;4973784;28;21572;-86
2022/03/20 01:40:25;;;;;;;20.07;13.53;;;4.30;97.90;;;;;;4975726;28;20180;-86
2022/03/20 01:42:51;;;;;;;20.20;14.80;;;4.30;97.80;;;;;;4998857;28;20868;-86
2022/03/20 01:45:20;;;;;;;19.77;15.57;;;4.40;97.80;;;;;;4972123;28;21069;-86
2022/03/20 01:47:47;;;;;;;17.27;14.23;;;4.40;98.00;;;;;;4995172;28;21855;-86
2022/03/20 01:50:17;;;;;;;16.67;14.27;;;4.40;97.80;;;;;;4975236;28;20440;-86
2022/03/20 01:52:47;;;;;;;19.23;15.20;;;4.50;96.90;;;;;;4976969;28;20459;-86
2022/03/20 01:55:15;;;;;;;20.07;16.00;;;4.60;96.50;;;;;;4970946;28;20502;-86
2022/03/20 01:57:41;;;;;;;19.27;14.80;;;4.60;97.10;;;;;;4974181;28;20484;-86
2022/03/20 02:00:13;;;;;;;18.20;15.67;;;4.40;98.40;;;;;;4967951;28;20449;-86
2022/03/20 02:02:39;;;;;;;17.93;14.50;;;4.20;99.30;;;;;;4972792;28;20506;-85
2022/03/20 02:05:09;;;;;;;21.37;14.93;;;4.00;99.10;;;;;;4990510;28;22381;-85
2022/03/20 02:07:36;;;;;;;16.20;14.10;;;4.00;98.30;;;;;;4972809;28;22118;-87
2022/03/20 02:10:03;;;;;;;17.77;14.90;;;4.20;97.80;;;;;;4981044;28;20448;-86
2022/03/20 02:12:30;;;;;;;19.27;14.10;;;4.30;97.40;;;;;;4990617;28;20676;-86
2022/03/20 02:15:03;;;;;;;18.00;13.97;;;4.40;97.00;;;;;;4977592;28;20427;-86
2022/03/20 02:17:31;;;;;;;18.07;15.03;;;4.60;96.50;;;;;;4978244;28;20479;-86
2022/03/20 02:20:03;;;;;;;18.80;14.80;;;4.60;96.10;;;;;;4989261;28;20437;-86
2022/03/20 02:22:30;;;;;;;20.43;14.37;;;4.70;96.40;;;;;;4976573;28;20441;-86
2022/03/20 02:24:56;;;;;;;18.30;14.87;;;5.20;96.80;;;;;;4973294;28;20772;-86
2022/03/20 02:27:24;;;;;;;18.90;14.53;;;4.80;97.30;;;;;;4978203;28;22516;-86
2022/03/20 02:30:00;;;;;;;17.00;14.47;;;4.80;96.70;;;;;;4987422;28;20182;-86
2022/03/20 02:32:29;;;;;;;19.33;13.97;;;4.80;97.00;;;;;;4971435;28;20446;-85
2022/03/20 02:34:56;;;;;;;23.10;15.30;;;4.70;97.90;;;;;;4974965;28;20443;-86
2022/03/20 02:37:23;;;;;;;18.20;14.90;;;4.70;97.80;;;;;;4974692;28;20558;-86
2022/03/20 02:39:52;;;;;;;17.70;15.00;;;4.80;98.00;;;;;;4975941;28;20538;-86
2022/03/20 02:42:18;;;;;;;19.60;13.70;;;4.80;97.80;;;;;;4973373;28;20445;-86
2022/03/20 02:44:58;;;;;;;17.00;14.93;;;4.80;98.30;;;;;;4992880;28;20438;-86
2022/03/20 02:47:25;;;;;;;18.17;14.50;;;4.80;98.40;;;;;;4979085;28;20915;-86
2022/03/20 02:49:53;;;;;;;19.00;15.67;;;4.80;99.00;;;;;;4992311;28;20459;-86
2022/03/20 02:52:25;;;;;;;18.60;15.27;;;4.70;99.30;;;;;;4985464;28;20470;-86
2022/03/20 02:54:52;;;;;;;18.93;15.50;;;4.70;99.90;;;;;;4973286;28;20946;-86
2022/03/20 02:57:18;;;;;;;18.13;14.13;;;4.70;99.90;;;;;;4974161;28;20479;-86
2022/03/20 02:59:44;;;;;;;17.40;14.40;;;4.60;99.90;;;;;;4974417;28;20518;-86
2022/03/20 03:02:11;;;;;;;18.87;14.60;;;4.50;99.90;;;;;;4969297;28;20450;-85
2022/03/20 03:04:41;;;;;;;18.97;14.43;;;4.50;99.90;;;;;;4975180;28;20658;-86
2022/03/20 03:07:08;;;;;;;22.00;15.43;;;4.50;99.90;;;;;;4987278;28;20456;-86
2022/03/20 03:12:17;;;;;;;17.67;15.10;;;4.50;99.90;;;;;;5008509;28;20489;-86
2022/03/20 03:17:30;;;;;;;22.63;15.27;;;4.10;99.90;;;;;;5008750;28;20581;-86
2022/03/20 03:19:56;;;;;;;19.13;15.17;;;4.00;99.90;;;;;;4989427;28;20450;-86
2022/03/20 03:22:24;;;;;;;20.70;15.47;;;4.10;99.90;;;;;;5001980;28;20470;-86
2022/03/20 03:24:50;;;;;;;17.07;14.60;;;4.20;99.90;;;;;;4986081;28;20524;-86
2022/03/20 03:27:16;;;;;;;18.73;13.60;;;4.30;99.90;;;;;;4986117;28;20449;-86
2022/03/20 03:29:41;;;;;;;16.00;13.77;;;4.30;99.90;;;;;;4980500;28;20656;-86
2022/03/20 03:32:07;;;;;;;17.60;14.80;;;4.30;99.90;;;;;;4982025;28;21127;-86
2022/03/20 03:37:20;;;;;;;21.63;17.70;;;4.40;99.90;;;;;;4999839;28;20262;-86
2022/03/20 03:39:46;;;;;;;19.47;15.13;;;4.30;99.90;;;;;;4997203;28;21074;-86
2022/03/20 03:42:11;;;;;;;20.33;15.30;;;4.30;99.90;;;;;;4977656;28;21156;-87
2022/03/20 03:44:37;;;;;;;19.80;15.03;;;4.30;99.90;;;;;;4981342;28;20443;-87
2022/03/20 03:47:03;;;;;;;17.70;14.97;;;4.20;99.90;;;;;;4982840;28;20706;-87
2022/03/20 03:49:28;;;;;;;17.70;14.83;;;4.30;99.90;;;;;;4995705;28;20241;-87
2022/03/20 03:51:54;;;;;;;17.20;14.23;;;4.30;99.90;;;;;;5007730;28;20216;-87
2022/03/20 03:54:20;;;;;;;20.40;16.37;;;4.30;99.90;;;;;;4989494;28;20201;-87
2022/03/20 03:56:45;;;;;;;17.93;15.60;;;4.20;99.90;;;;;;4993858;28;21310;-86
2022/03/20 03:59:13;;;;;;;17.97;15.57;;;4.10;99.90;;;;;;4989887;28;20219;-86
2022/03/20 04:01:39;;;;;;;19.13;14.97;;;4.20;99.90;;;;;;5013221;28;20186;-86
2022/03/20 04:04:05;;;;;;;21.27;16.13;;;4.30;99.90;;;;;;5000783;28;20447;-86
2022/03/20 04:06:30;;;;;;;18.83;15.17;;;4.30;99.90;;;;;;4972769;28;21403;-86
2022/03/20 04:08:56;;;;;;;20.67;16.67;;;4.40;99.90;;;;;;4982188;28;20180;-87
2022/03/20 04:11:21;;;;;;;22.63;15.57;;;4.20;99.90;;;;;;4996738;28;20188;-87
2022/03/20 04:13:47;;;;;;;20.03;16.03;;;4.30;99.90;;;;;;4993727;28;20192;-88
2022/03/20 04:16:16;;;;;;;18.53;16.17;;;4.30;99.90;;;;;;4989266;28;20429;-88
2022/03/20 04:18:41;;;;;;;20.50;15.70;;;4.30;99.90;;;;;;5013061;28;20605;-88
2022/03/20 04:21:07;;;;;;;18.20;15.73;;;4.40;99.90;;;;;;5009905;28;20834;-88
2022/03/20 04:23:49;;;;;;;17.40;14.63;;;4.50;99.90;;;;;;4991268;28;20562;-88
2022/03/20 04:26:17;;;;;;;19.90;16.33;;;4.50;99.90;;;;;;4988267;28;20192;-88
2022/03/20 04:28:47;;;;;;;21.40;15.10;;;4.40;99.90;;;;;;4985840;28;20539;-87
2022/03/20 04:31:16;;;;;;;21.17;16.23;;;4.40;99.90;;;;;;4972940;28;20978;-87
2022/03/20 04:33:56;;;;;;;23.77;17.30;;;4.30;99.90;;;;;;4979721;28;20452;-87
2022/03/20 04:36:23;;;;;;;19.27;15.50;;;4.40;99.90;;;;;;4976568;28;21818;-88
2022/03/20 04:38:51;;;;;;;19.87;15.80;;;4.40;99.90;;;;;;4994090;28;20483;-87
2022/03/20 04:41:18;;;;;;;20.10;16.97;;;4.50;99.90;;;;;;4976664;28;20458;-88
2022/03/20 04:43:44;;;;;;;21.97;16.77;;;4.50;99.90;;;;;;4976398;28;20439;-87
2022/03/20 04:46:11;;;;;;;19.90;15.73;;;4.40;99.90;;;;;;4974225;28;20434;-88
2022/03/20 04:59:44;;;;;;;36.67;18.07;;;4.70;99.90;;;;;;4995776;28;20448;-86
2022/03/20 05:02:10;;;;;;;21.67;17.70;;;4.70;99.90;;;;;;4998876;28;20837;-88
2022/03/20 05:04:37;;;;;;;20.77;16.87;;;4.70;99.90;;;;;;4977178;28;22150;-87
2022/03/20 05:07:05;;;;;;;21.00;16.77;;;4.50;99.90;;;;;;4971984;28;20447;-87
2022/03/20 05:15:05;;;;;;;20.50;17.20;;;4.60;99.90;;;;;;4994389;28;20451;-87
2022/03/20 05:17:31;;;;;;;21.20;17.63;;;4.60;99.90;;;;;;4974528;28;20648;-87
2022/03/20 05:19:56;;;;;;;20.60;16.43;;;4.70;99.90;;;;;;4976557;28;20949;-87
2022/03/20 05:22:22;;;;;;;23.00;17.33;;;4.70;99.90;;;;;;4973727;28;20185;-87
2022/03/20 05:24:47;;;;;;;25.27;18.67;;;4.70;99.90;;;;;;4979188;28;20970;-87
2022/03/20 05:27:13;;;;;;;21.80;17.83;;;4.80;99.90;;;;;;4976308;28;20197;-86
2022/03/20 05:29:40;;;;;;;20.10;16.60;;;4.70;99.90;;;;;;4977249;28;20482;-87
2022/03/20 05:32:07;;;;;;;20.60;17.30;;;4.70;99.90;;;;;;4975126;28;20286;-87
2022/03/20 05:34:33;;;;;;;23.60;16.77;;;4.70;99.90;;;;;;4976588;28;20466;-87
2022/03/20 05:37:02;;;;;;;22.23;16.93;;;4.70;99.90;;;;;;4971627;28;20486;-87
2022/03/20 05:39:53;;;;;;;19.87;17.20;;;4.80;99.90;;;;;;4975260;28;20583;-87
2022/03/20 05:42:18;;;;;;;22.73;16.53;;;4.90;99.90;;;;;;4976786;28;20439;-87
2022/03/20 05:44:46;;;;;;;18.77;16.57;;;4.90;99.90;;;;;;4972142;28;20449;-86
2022/03/20 05:47:12;;;;;;;23.27;16.87;;;4.90;99.90;;;;;;4977034;28;20550;-88
2022/03/20 05:49:38;;;;;;;24.00;18.00;;;4.80;99.90;;;;;;4978416;28;22046;-88
2022/03/20 05:52:05;;;;;;;23.07;18.53;;;4.90;99.90;;;;;;4975408;28;20976;-86
2022/03/20 05:54:31;;;;;;;22.80;18.20;;;5.00;99.90;;;;;;4990603;28;20686;-87
2022/03/20 05:59:42;;;;;;;23.87;19.90;;;5.00;99.90;;;;;;4978374;28;20955;-88
2022/03/20 06:02:11;;;;;;;23.97;19.00;;;4.90;99.90;;;;;;4991552;28;20441;-87
2022/03/20 06:04:38;;;;;;;21.77;18.50;;;5.10;99.90;;;;;;4974713;28;20886;-87
2022/03/20 06:07:08;;;;;;;22.73;19.00;;;5.00;99.90;;;;;;4978741;28;20457;-87
2022/03/20 06:09:35;;;;;;;22.53;17.63;;;5.00;99.90;;;;;;4980122;28;20465;-87
2022/03/20 06:12:01;;;;;;;24.43;17.87;;;5.00;99.90;;;;;;4975036;28;21070;-86
2022/03/20 06:14:26;;;;;;;22.17;17.70;;;5.20;99.90;;;;;;4979947;28;20485;-87
2022/03/20 06:16:52;;;;;;;21.93;16.47;;;5.30;99.90;;;;;;4975946;28;20213;-87
2022/03/20 06:19:17;;;;;;;21.03;17.47;;;5.20;99.90;;;;;;4973704;28;20188;-87
2022/03/20 06:21:44;;;;;;;20.43;16.93;;;5.30;99.90;;;;;;4995236;28;20669;-86
2022/03/20 06:24:10;;;;;;;24.27;18.93;;;5.50;99.90;;;;;;4987100;28;20192;-86
2022/03/20 06:26:36;;;;;;;23.43;18.60;;;5.70;99.90;;;;;;4976572;28;20709;-86
2022/03/20 06:29:05;;;;;;;25.20;19.23;;;5.90;99.90;;;;;;4974240;28;20448;-86
2022/03/20 06:31:31;;;;;;;25.57;18.47;;;5.80;99.90;;;;;;4976372;28;21195;-86
2022/03/20 06:33:58;;;;;;;24.17;18.93;;;5.90;99.90;;;;;;4992628;28;20560;-86
2022/03/20 06:36:26;;;;;;;20.97;17.97;;;5.90;99.90;;;;;;4972590;28;22059;-85
2022/03/20 06:38:52;;;;;;;24.13;17.53;;;5.90;99.90;;;;;;4998745;28;20670;-86
2022/03/20 06:41:18;;;;;;;21.43;18.27;;;6.10;99.90;;;;;;4978679;28;20955;-86
2022/03/20 06:43:47;;;;;;;20.13;17.00;;;6.20;99.90;;;;;;4977954;28;20290;-85
2022/03/20 06:46:15;;;;;;;23.43;18.07;;;6.30;99.90;;;;;;4979142;28;20431;-86
2022/03/20 06:48:41;;;;;;;25.90;19.97;;;6.40;99.70;;;;;;4977551;28;20454;-86
2022/03/20 06:51:06;;;;;;;24.53;18.93;;;6.50;98.10;;;;;;4981349;28;20183;-86
2022/03/20 06:53:35;;;;;;;28.10;20.57;;;6.60;97.90;;;;;;4993123;28;20208;-86
2022/03/20 06:56:00;;;;;;;25.50;20.00;;;6.70;98.00;;;;;;4978254;28;20587;-86
2022/03/20 06:58:28;;;;;;;28.70;21.30;;;6.70;97.30;;;;;;4976103;28;20512;-86
2022/03/20 07:00:54;;;;;;;24.23;19.90;;;6.80;97.10;;;;;;4981032;28;20188;-86
2022/03/20 07:03:20;;;;;;;23.10;20.17;;;6.80;97.10;;;;;;4978909;28;20456;-86
2022/03/20 07:05:46;;;;;;;24.63;19.80;;;6.80;96.60;;;;;;4983942;28;20469;-86
2022/03/20 07:08:13;;;;;;;28.70;21.90;;;6.90;96.60;;;;;;4983914;28;20443;-86
2022/03/20 07:10:42;;;;;;;23.90;18.90;;;6.90;96.20;;;;;;4991333;28;20558;-86
2022/03/20 07:15:57;;;;;;;29.67;20.90;;;6.90;96.40;;;;;;4995865;28;20451;-87
2022/03/20 07:18:23;;;;;;;24.97;20.03;;;6.80;95.70;;;;;;4982107;28;20855;-86
2022/03/20 07:20:50;;;;;;;22.97;19.80;;;6.80;96.20;;;;;;4997319;28;20446;-86
2022/03/20 07:23:16;;;;;;;25.53;21.00;;;7.00;96.00;;;;;;4999933;28;20450;-85
2022/03/20 07:31:13;;;;;;;25.70;20.90;;;7.40;94.40;;;;;;5007631;28;21005;-87
2022/03/20 07:33:39;;;;;;;26.60;20.60;;;7.50;93.90;;;;;;4979957;28;20521;-87
2022/03/20 07:36:12;;;;;;;26.70;20.87;;;7.70;93.40;;;;;;4971352;28;20239;-87
2022/03/20 07:38:38;;;;;;;24.30;21.40;;;7.50;93.60;;;;;;4975353;28;20478;-87
2022/03/20 07:41:04;;;;;;;25.97;20.37;;;7.50;94.10;;;;;;4972953;28;20449;-86
2022/03/20 07:43:29;;;;;;;25.63;20.97;;;7.60;94.00;;;;;;4995504;28;20240;-88
2022/03/20 07:45:58;;;;;;;25.10;20.03;;;7.80;94.10;;;;;;4996849;28;20548;-86
2022/03/20 07:48:24;;;;;;;23.37;19.77;;;8.10;94.00;;;;;;4977576;28;20436;-87
2022/03/20 07:50:56;;;;;;;24.90;20.60;;;8.40;94.30;;;;;;4975259;28;20460;-88
2022/03/20 07:53:23;;;;;;;26.80;20.90;;;8.70;93.60;;;;;;4984999;28;21463;-88
2022/03/20 07:55:51;;;;;;;24.00;19.40;;;8.90;93.20;;;;;;4994563;28;20449;-87
2022/03/20 07:58:21;;;;;;;25.70;21.47;;;9.00;93.00;;;;;;4978502;28;20513;-87
2022/03/20 08:00:47;;;;;;;26.43;20.20;;;9.00;92.90;;;;;;4975155;28;20447;-87
2022/03/20 08:03:13;;;;;;;26.30;22.03;;;9.20;92.50;;;;;;4976412;28;20443;-87
2022/03/20 08:05:42;;;;;;;24.27;21.33;;;9.40;91.90;;;;;;4978996;28;20582;-87
2022/03/20 08:08:14;;;;;;;27.30;22.73;;;9.30;91.70;;;;;;5000603;28;20458;-88
2022/03/20 08:10:40;;;;;;;29.87;23.13;;;9.10;92.10;;;;;;4990550;28;20450;-88
2022/03/20 08:13:05;;;;;;;26.10;22.10;;;9.10;92.30;;;;;;4979079;28;20506;-87
2022/03/20 08:15:31;;;;;;;24.43;21.80;;;8.90;92.20;;;;;;4995088;28;20504;-87
2022/03/20 08:17:57;;;;;;;27.10;22.40;;;8.80;92.20;;;;;;4995215;28;20310;-86
2022/03/20 08:20:22;;;;;;;25.73;20.63;;;8.90;92.20;;;;;;4976007;28;20450;-88
2022/03/20 08:22:48;;;;;;;27.87;23.20;;;9.20;92.00;;;;;;4974603;28;20608;-87
2022/03/20 08:25:29;;;;;;;29.43;22.43;;;9.40;91.10;;;;;;4982621;28;20212;-88
2022/03/20 08:28:05;;;;;;;24.23;20.90;;;9.50;91.60;;;;;;4994973;28;20325;-87
2022/03/20 08:30:31;;;;;;;23.87;20.37;;;9.60;91.20;;;;;;4997050;28;20433;-87
2022/03/20 08:32:57;;;;;;;23.77;20.93;;;9.90;90.20;;;;;;4989721;28;20961;-88
2022/03/20 08:35:23;;;;;;;27.70;21.33;;;10.20;88.80;;;;;;4981226;28;21055;-88
2022/03/20 08:37:53;;;;;;;26.50;22.10;;;10.10;89.00;;;;;;4970395;28;20690;-87
2022/03/20 08:40:34;;;;;;;25.90;21.10;;;10.30;89.30;;;;;;4990851;28;20195;-87
2022/03/20 08:43:00;;;;;;;24.83;20.90;;;10.60;87.90;;;;;;4979270;28;20507;-86
2022/03/20 08:45:31;;;;;;;25.67;20.63;;;10.60;85.10;;;;;;4974802;28;20568;-87
2022/03/20 08:47:57;;;;;;;27.33;23.60;;;10.40;85.90;;;;;;4974460;28;20479;-87
2022/03/20 08:50:23;;;;;;;25.70;21.13;;;10.30;89.40;;;;;;4972101;28;20435;-87
2022/03/20 08:52:49;;;;;;;24.57;21.47;;;10.70;87.60;;;;;;4972759;28;22250;-87
2022/03/20 08:55:15;;;;;;;26.80;23.10;;;11.00;85.50;;;;;;4981819;28;20427;-91
2022/03/20 08:57:47;;;;;;;25.50;21.47;;;10.80;86.60;;;;;;4976873;28;20252;-90
2022/03/20 09:00:15;;;;;;;26.67;20.67;;;10.80;85.80;;;;;;4976408;28;20462;-88
2022/03/20 09:02:44;;;;;;;26.87;22.30;;;11.20;84.40;;;;;;4990506;28;20511;-89
2022/03/20 09:05:11;;;;;;;24.97;21.77;;;11.60;84.50;;;;;;4967412;28;20449;-88
2022/03/20 09:07:39;;;;;;;25.40;21.63;;;11.90;82.70;;;;;;4984140;28;20430;-88
2022/03/20 09:10:05;;;;;;;26.47;22.30;;;11.90;82.00;;;;;;4970359;28;20953;-88
2022/03/20 09:12:31;;;;;;;25.37;22.20;;;12.10;83.20;;;;;;4963491;28;20435;-88
2022/03/20 09:15:02;;;;;;;27.00;23.50;;;12.30;82.20;;;;;;4987736;28;20683;-88
2022/03/20 09:20:12;;;;;;;26.87;22.97;;;12.50;82.30;;;;;;4982901;28;24093;-87
2022/03/20 09:22:40;;;;;;;27.60;24.50;;;12.60;81.10;;;;;;4967242;28;20469;-87
2022/03/20 09:25:07;;;;;;;26.10;23.10;;;12.70;84.80;;;;;;4969063;28;21905;-88
2022/03/20 09:27:35;;;;;;;26.33;23.33;;;12.80;86.30;;;;;;4981618;28;20474;-88
2022/03/20 09:30:05;;;;;;;26.30;23.50;;;13.30;79.60;;;;;;4966119;28;20902;-87
2022/03/20 09:32:30;;;;;;;26.30;21.63;;;13.60;78.20;;;;;;4982305;28;20200;-88
2022/03/20 09:34:57;;;;;;;23.80;21.30;;;13.60;73.80;;;;;;4976810;28;20455;-87
2022/03/20 09:37:22;;;;;;;27.10;23.77;;;13.50;75.10;;;;;;4976341;28;20353;-87
2022/03/20 09:39:48;;;;;;;27.87;23.30;;;13.40;73.40;;;;;;4968691;28;21014;-88
2022/03/20 09:42:18;;;;;;;26.00;22.90;;;13.50;74.40;;;;;;4972192;28;20222;-88
2022/03/20 09:44:49;;;;;;;23.37;20.73;;;13.80;74.50;;;;;;4964597;28;20221;-88
2022/03/20 09:47:18;;;;;;;25.77;22.73;;;13.80;72.60;;;;;;4972706;28;20925;-88
2022/03/20 09:49:48;;;;;;;24.20;21.20;;;14.20;72.20;;;;;;4968074;28;20797;-86
2022/03/20 09:52:16;;;;;;;24.87;22.20;;;14.50;73.20;;;;;;4980425;28;20454;-89
2022/03/20 09:54:43;;;;;;;24.67;22.20;;;14.70;70.80;;;;;;4961112;28;20458;-88
2022/03/20 09:57:10;;;;;;;24.70;21.13;;;14.80;71.80;;;;;;4969031;28;20605;-88
2022/03/20 09:59:38;;;;;;;24.83;22.17;;;14.50;69.00;;;;;;4970801;28;21000;-89
2022/03/20 10:02:06;;;;;;;24.87;21.13;;;14.70;73.50;;;;;;4974686;28;20530;-89
2022/03/20 10:04:35;;;;;;;23.47;20.97;;;15.00;69.40;;;;;;4963635;28;20530;-88
2022/03/20 10:07:01;;;;;;;24.70;21.27;;;15.20;65.00;;;;;;4963998;28;21123;-88
2022/03/20 10:09:38;;;;;;;20.80;18.60;;;15.20;65.40;;;;;;4960007;28;20490;-88
2022/03/20 10:12:04;;;;;;;21.93;18.53;;;15.50;65.80;;;;;;4992545;28;20223;-88
2022/03/20 10:14:30;;;;;;;22.47;19.83;;;15.60;62.50;;;;;;4984706;28;20451;-88
2022/03/20 10:17:14;;;;;;;20.93;18.50;;;15.60;61.20;;;;;;4986335;28;20515;-88
2022/03/20 10:19:40;;;;;;;23.50;20.30;;;15.70;59.90;;;;;;4979547;28;20192;-88
2022/03/20 10:22:10;;;;;;;22.40;20.00;;;16.10;61.20;;;;;;4972230;28;20936;-88
2022/03/20 10:24:38;;;;;;;24.13;21.73;;;16.60;60.30;;;;;;4992373;28;20527;-89
2022/03/20 10:27:03;;;;;;;23.00;20.53;;;16.90;65.40;;;;;;4995895;28;20990;-89
2022/03/20 10:29:31;;;;;;;20.73;18.43;;;16.60;62.70;;;;;;4993394;28;20964;-89
2022/03/20 10:32:00;;;;;;;20.73;18.73;;;16.50;57.90;;;;;;4989655;28;20845;-88
2022/03/20 10:34:26;;;;;;;22.73;19.67;;;16.30;58.20;;;;;;4989221;28;20525;-88
2022/03/20 10:36:52;;;;;;;21.30;18.57;;;16.50;59.80;;;;;;4991958;28;20462;-89
2022/03/20 10:39:19;;;;;;;20.97;18.23;;;16.20;58.70;;;;;;4989097;28;20195;-88
2022/03/20 10:41:52;;;;;;;22.00;19.50;;;16.00;59.10;;;;;;4986307;28;20427;-88
2022/03/20 10:44:20;;;;;;;22.57;20.07;;;15.80;60.30;;;;;;4996379;28;20555;-88
2022/03/20 10:47:04;;;;;;;20.70;18.37;;;15.70;60.20;;;;;;4985848;28;20462;-89
2022/03/20 10:49:31;;;;;;;20.90;18.70;;;16.00;59.00;;;;;;4991295;28;20569;-88
2022/03/20 10:52:04;;;;;;;21.17;18.97;;;16.40;60.20;;;;;;4991473;28;20800;-89
2022/03/20 10:54:42;;;;;;;22.83;19.63;;;16.80;58.20;;;;;;5004787;28;20446;-88
2022/03/20 10:57:09;;;;;;;20.47;18.30;;;17.30;57.90;;;;;;4989798;28;20477;-89
2022/03/20 10:59:35;;;;;;;19.50;17.40;;;17.50;56.40;;;;;;4987186;28;20472;-89
2022/03/20 11:02:05;;;;;;;20.93;18.73;;;17.50;59.30;;;;;;4987955;28;20430;-89
2022/03/20 11:04:32;;;;;;;20.23;18.13;;;17.60;60.70;;;;;;4989301;28;21295;-88
2022/03/20 11:07:00;;;;;;;20.67;18.67;;;17.60;63.40;;;;;;5008246;28;20459;-89
2022/03/20 11:09:26;;;;;;;21.60;19.23;;;17.50;62.50;;;;;;4989482;28;20459;-88
2022/03/20 11:11:55;;;;;;;21.63;18.60;;;17.70;66.30;;;;;;5010023;28;20481;-89
2022/03/20 11:14:23;;;;;;;17.60;13.40;;;18.20;56.80;;;;;;5025108;28;20532;-88
2022/03/20 11:16:51;;;;;;;14.80;13.23;;;18.60;57.00;;;;;;4986692;28;20653;-89
2022/03/20 11:19:22;;;;;;;14.73;13.23;;;18.40;55.20;;;;;;4988283;28;20508;-88
2022/03/20 11:21:52;;;;;;;15.03;12.90;;;18.20;54.40;;;;;;4991330;28;20795;-87
2022/03/20 11:24:19;;;;;;;15.70;13.37;;;18.20;54.00;;;;;;4990410;28;20545;-88
2022/03/20 11:26:49;;;;;;;16.00;14.30;;;17.90;53.90;;;;;;4994317;28;20446;-89
2022/03/20 11:29:18;;;;;;;17.37;14.47;;;17.70;57.30;;;;;;5000514;28;20450;-89
2022/03/20 11:31:44;;;;;;;18.20;14.83;;;17.20;56.80;;;;;;4982183;28;20748;-88
2022/03/20 11:34:12;;;;;;;18.00;13.40;;;17.70;56.30;;;;;;4996528;28;20450;-88
2022/03/20 11:37:05;;;;;;;16.37;12.40;;;17.80;52.80;;;;;;4979062;28;20771;-88
2022/03/20 11:39:32;;;;;;;14.00;12.50;;;18.10;48.90;;;;;;4993772;28;20971;-89
2022/03/20 11:42:27;;;;;;;15.70;14.10;;;17.60;52.00;;;;;;4979516;28;21145;-88
2022/03/20 11:45:10;;;;;;;14.40;12.37;;;17.70;49.70;;;;;;4998052;28;20464;-88
2022/03/20 11:47:38;;;;;;;15.27;13.40;;;17.80;48.60;;;;;;4980559;28;20490;-88
2022/03/20 11:50:20;;;;;;;15.00;13.20;;;17.40;49.80;;;;;;4976879;28;21459;-88
2022/03/20 11:52:49;;;;;;;14.47;12.53;;;17.60;52.70;;;;;;4976349;28;20455;-89
2022/03/20 11:55:52;;;;;;;15.37;13.73;;;18.00;50.10;;;;;;4982449;28;20996;-88
2022/03/20 11:58:20;;;;;;;14.93;13.27;;;18.10;51.60;;;;;;5009610;28;20473;-89
2022/03/20 12:01:02;;;;;;;12.87;11.57;;;17.80;51.80;;;;;;4990185;28;20439;-88
2022/03/20 12:04:12;;;;;;;14.50;13.00;;;18.30;49.90;;;;;;4988446;28;24650;-89
2022/03/20 12:07:04;;;;;;;13.90;12.50;;;19.30;51.10;;;;;;4999979;28;20854;-88
2022/03/20 12:09:50;;;;;;;15.40;13.90;;;19.50;52.40;;;;;;4980279;28;20486;-89
2022/03/20 12:12:39;;;;;;;14.73;13.30;;;19.20;53.10;;;;;;4977233;28;20447;-89
2022/03/20 12:15:09;;;;;;;13.10;11.80;;;18.90;52.30;;;;;;5001403;28;20887;-89
2022/03/20 12:18:10;;;;;;;13.33;12.03;;;18.60;53.80;;;;;;4993143;28;20479;-89
2022/03/20 12:21:00;;;;;;;14.30;11.73;;;18.70;52.30;;;;;;4928610;28;20500;-89
2022/03/20 12:23:33;;;;;;;13.93;12.63;;;18.70;57.10;;;;;;4977489;28;20516;-89
2022/03/20 12:26:34;;;;;;;16.80;13.40;;;19.50;55.60;;;;;;4979384;28;20594;-90
2022/03/20 12:29:35;;;;;;;18.80;16.80;;;20.10;55.20;;;;;;4981735;28;20433;-90
2022/03/20 12:32:00;;;;;;;20.10;18.03;;;19.80;57.20;;;;;;4988301;28;20800;-89
2022/03/20 12:34:26;;;;;;;18.03;16.00;;;20.00;57.40;;;;;;5001038;28;20450;-88
2022/03/20 12:36:53;;;;;;;19.70;16.00;;;20.20;56.30;;;;;;4977816;28;20235;-90
2022/03/20 12:39:54;;;;;;;19.20;16.77;;;19.70;55.00;;;;;;4975856;28;20451;-90
2022/03/20 12:42:21;;;;;;;18.63;16.83;;;19.60;54.30;;;;;;4983023;28;20582;-89
2022/03/20 12:44:48;;;;;;;16.87;15.23;;;19.50;55.90;;;;;;4982526;28;20449;-90
2022/03/20 12:47:21;;;;;;;17.30;15.50;;;19.90;51.10;;;;;;4987669;28;20443;-90
2022/03/20 12:50:09;;;;;;;18.07;16.27;;;20.30;54.00;;;;;;4977183;28;20447;-90
2022/03/20 12:52:36;;;;;;;18.10;16.20;;;20.60;54.10;;;;;;4977914;28;20601;-89
2022/03/20 12:55:09;;;;;;;18.67;16.67;;;20.70;53.30;;;;;;4976245;28;20447;-90
2022/03/20 12:57:35;;;;;;;17.67;15.87;;;19.70;48.60;;;;;;4991809;28;20470;-89
2022/03/20 13:00:10;;;;;;;19.27;16.80;;;19.80;49.30;;;;;;4976624;28;20473;-89
2022/03/20 13:02:55;;;;;;;20.93;17.20;;;20.20;52.50;;;;;;4982783;28;20526;-90
2022/03/20 13:05:20;;;;;;;18.93;16.43;;;20.20;51.70;;;;;;4995547;28;20450;-90
2022/03/20 13:07:46;;;;;;;20.87;16.30;;;20.20;51.60;;;;;;4973321;28;20443;-89
2022/03/20 13:10:16;;;;;;;17.00;15.30;;;20.10;53.90;;;;;;4978318;28;20862;-89
2022/03/20 13:12:55;;;;;;;17.70;15.07;;;20.40;51.90;;;;;;4983036;28;20620;-90
2022/03/20 13:15:31;;;;;;;18.10;16.20;;;20.80;48.90;;;;;;4987823;28;21091;-89
2022/03/20 13:17:58;;;;;;;17.83;15.87;;;20.90;44.50;;;;;;4989217;28;21131;-89
2022/03/20 13:20:29;;;;;;;19.30;17.30;;;20.30;47.40;;;;;;4994090;28;20442;-90